sensor_id;sensor_type;location;lat;lon;timestamp;P1;durP1;ratioP1;P2;durP2;ratioP2
56631;SDS011;42503;39.928;-75.152;2023-04-25T00:02:07;3.08;;;1.30;;
56631;SDS011;42503;39.928;-75.152;2023-04-25T00:12:09;3.70;;;1.63;;
56631;SDS011;42503;39.928;-75.152;2023-04-25T00:22:10;6.85;;;1.15;;
56631;SDS011;42503;39.928;-75.152;2023-04-25T00:32:12;1.58;;;1.10;;
56631;SDS011;42503;39.928;-75.152;2023-04-25T00:42:13;4.43;;;1.30;;
56631;SDS011;42503;39.928;-75.152;2023-04-25T00:52:18;2.97;;;1.20;;
56631;SDS011;42503;39.928;-75.152;2023-04-25T01:02:20;1.42;;;0.98;;
56631;SDS011;42503;39.928;-75.152;2023-04-25T01:12:22;4.88;;;0.93;;
56631;SDS011;42503;39.928;-75.152;2023-04-25T01:22:27;4.75;;;1.27;;
56631;SDS011;42503;39.928;-75.152;2023-04-25T01:32:28;8.95;;;1.38;;
56631;SDS011;42503;39.928;-75.152;2023-04-25T01:42:39;5.18;;;1.25;;
56631;SDS011;42503;39.928;-75.152;2023-04-25T01:52:42;4.07;;;1.05;;
56631;SDS011;42503;39.928;-75.152;2023-04-25T02:02:44;3.67;;;1.30;;
56631;SDS011;42503;39.928;-75.152;2023-04-25T02:12:45;1.48;;;0.95;;
56631;SDS011;42503;39.928;-75.152;2023-04-25T02:22:46;3.15;;;1.42;;
56631;SDS011;42503;39.928;-75.152;2023-04-25T02:32:48;3.25;;;1.38;;
56631;SDS011;42503;39.928;-75.152;2023-04-25T02:42:49;13.95;;;1.88;;
56631;SDS011;42503;39.928;-75.152;2023-04-25T02:52:50;7.13;;;1.45;;
56631;SDS011;42503;39.928;-75.152;2023-04-25T03:02:52;2.92;;;1.27;;
56631;SDS011;42503;39.928;-75.152;2023-04-25T03:12:54;1.83;;;0.80;;
56631;SDS011;42503;39.928;-75.152;2023-04-25T03:22:55;1.45;;;1.15;;
56631;SDS011;42503;39.928;-75.152;2023-04-25T03:32:57;1.33;;;1.10;;
56631;SDS011;42503;39.928;-75.152;2023-04-25T03:42:58;2.63;;;1.38;;
56631;SDS011;42503;39.928;-75.152;2023-04-25T03:52:59;3.13;;;1.10;;
56631;SDS011;42503;39.928;-75.152;2023-04-25T04:03:01;4.00;;;1.33;;
56631;SDS011;42503;39.928;-75.152;2023-04-25T04:13:05;1.67;;;1.10;;
56631;SDS011;42503;39.928;-75.152;2023-04-25T04:23:06;1.88;;;1.00;;
56631;SDS011;42503;39.928;-75.152;2023-04-25T04:33:08;2.08;;;1.10;;
56631;SDS011;42503;39.928;-75.152;2023-04-25T04:43:16;1.10;;;1.00;;
56631;SDS011;42503;39.928;-75.152;2023-04-25T04:53:18;1.30;;;1.05;;
56631;SDS011;42503;39.928;-75.152;2023-04-25T05:03:19;3.42;;;0.98;;
56631;SDS011;42503;39.928;-75.152;2023-04-25T05:13:21;1.20;;;1.10;;
56631;SDS011;42503;39.928;-75.152;2023-04-25T05:23:22;3.30;;;1.10;;
56631;SDS011;42503;39.928;-75.152;2023-04-25T05:33:24;1.77;;;1.10;;
56631;SDS011;42503;39.928;-75.152;2023-04-25T05:43:27;2.20;;;1.05;;
56631;SDS011;42503;39.928;-75.152;2023-04-25T05:53:28;2.05;;;1.13;;
56631;SDS011;42503;39.928;-75.152;2023-04-25T06:03:30;1.80;;;1.10;;
56631;SDS011;42503;39.928;-75.152;2023-04-25T06:13:34;1.23;;;1.13;;
56631;SDS011;42503;39.928;-75.152;2023-04-25T06:23:35;1.33;;;1.17;;
56631;SDS011;42503;39.928;-75.152;2023-04-25T06:33:36;1.40;;;1.15;;
56631;SDS011;42503;39.928;-75.152;2023-04-25T06:43:38;1.20;;;1.00;;
56631;SDS011;42503;39.928;-75.152;2023-04-25T06:53:39;2.28;;;1.15;;
56631;SDS011;42503;39.928;-75.152;2023-04-25T07:03:41;1.20;;;0.95;;
56631;SDS011;42503;39.928;-75.152;2023-04-25T07:13:42;0.82;;;0.82;;
56631;SDS011;42503;39.928;-75.152;2023-04-25T07:23:44;1.15;;;0.90;;
56631;SDS011;42503;39.928;-75.152;2023-04-25T07:33:45;2.10;;;0.80;;
56631;SDS011;42503;39.928;-75.152;2023-04-25T07:43:49;1.20;;;0.70;;
56631;SDS011;42503;39.928;-75.152;2023-04-25T07:53:50;0.95;;;0.80;;
56631;SDS011;42503;39.928;-75.152;2023-04-25T08:03:55;0.95;;;0.77;;
56631;SDS011;42503;39.928;-75.152;2023-04-25T08:13:56;2.03;;;0.90;;
56631;SDS011;42503;39.928;-75.152;2023-04-25T08:23:57;1.00;;;0.65;;
56631;SDS011;42503;39.928;-75.152;2023-04-25T08:34:04;1.00;;;0.90;;
56631;SDS011;42503;39.928;-75.152;2023-04-25T08:44:09;1.55;;;0.90;;
56631;SDS011;42503;39.928;-75.152;2023-04-25T08:54:12;1.40;;;0.90;;
56631;SDS011;42503;39.928;-75.152;2023-04-25T09:04:17;0.82;;;0.82;;
56631;SDS011;42503;39.928;-75.152;2023-04-25T09:14:22;0.90;;;0.75;;
56631;SDS011;42503;39.928;-75.152;2023-04-25T09:34:45;0.97;;;0.90;;
56631;SDS011;42503;39.928;-75.152;2023-04-25T09:44:52;1.10;;;1.00;;
56631;SDS011;42503;39.928;-75.152;2023-04-25T09:54:57;0.93;;;0.70;;
56631;SDS011;42503;39.928;-75.152;2023-04-25T10:04:59;1.10;;;0.80;;
56631;SDS011;42503;39.928;-75.152;2023-04-25T10:15:04;0.75;;;0.75;;
56631;SDS011;42503;39.928;-75.152;2023-04-25T10:25:06;1.02;;;0.93;;
56631;SDS011;42503;39.928;-75.152;2023-04-25T10:35:18;2.92;;;1.15;;
56631;SDS011;42503;39.928;-75.152;2023-04-25T10:45:25;1.10;;;1.00;;
56631;SDS011;42503;39.928;-75.152;2023-04-25T10:55:26;1.08;;;0.98;;
56631;SDS011;42503;39.928;-75.152;2023-04-25T11:05:47;1.27;;;1.00;;
56631;SDS011;42503;39.928;-75.152;2023-04-25T11:15:53;1.13;;;0.85;;
56631;SDS011;42503;39.928;-75.152;2023-04-25T11:25:54;1.58;;;0.88;;
56631;SDS011;42503;39.928;-75.152;2023-04-25T11:35:56;3.83;;;1.80;;
56631;SDS011;42503;39.928;-75.152;2023-04-25T11:45:57;4.43;;;1.30;;
56631;SDS011;42503;39.928;-75.152;2023-04-25T11:55:58;7.57;;;1.27;;
56631;SDS011;42503;39.928;-75.152;2023-04-25T12:06:03;2.92;;;0.98;;
56631;SDS011;42503;39.928;-75.152;2023-04-25T12:16:11;7.55;;;1.38;;
56631;SDS011;42503;39.928;-75.152;2023-04-25T12:26:12;9.67;;;1.53;;
56631;SDS011;42503;39.928;-75.152;2023-04-25T12:36:13;3.58;;;1.08;;
56631;SDS011;42503;39.928;-75.152;2023-04-25T12:46:17;5.45;;;1.33;;
56631;SDS011;42503;39.928;-75.152;2023-04-25T12:56:18;3.08;;;1.00;;
56631;SDS011;42503;39.928;-75.152;2023-04-25T13:06:20;3.83;;;1.10;;
56631;SDS011;42503;39.928;-75.152;2023-04-25T13:16:25;2.88;;;1.15;;
56631;SDS011;42503;39.928;-75.152;2023-04-25T13:26:26;2.67;;;1.27;;
56631;SDS011;42503;39.928;-75.152;2023-04-25T13:36:27;1.65;;;0.90;;
56631;SDS011;42503;39.928;-75.152;2023-04-25T13:46:29;2.10;;;0.98;;
56631;SDS011;42503;39.928;-75.152;2023-04-25T13:56:32;1.30;;;1.15;;
56631;SDS011;42503;39.928;-75.152;2023-04-25T14:06:34;2.08;;;1.05;;
56631;SDS011;42503;39.928;-75.152;2023-04-25T14:16:36;2.72;;;0.88;;
56631;SDS011;42503;39.928;-75.152;2023-04-25T14:26:37;1.20;;;1.00;;
56631;SDS011;42503;39.928;-75.152;2023-04-25T14:36:38;1.08;;;0.90;;
56631;SDS011;42503;39.928;-75.152;2023-04-25T14:46:40;2.15;;;0.90;;
56631;SDS011;42503;39.928;-75.152;2023-04-25T14:56:41;1.52;;;0.88;;
56631;SDS011;42503;39.928;-75.152;2023-04-25T15:06:43;2.65;;;0.95;;
56631;SDS011;42503;39.928;-75.152;2023-04-25T15:16:47;1.02;;;0.70;;
56631;SDS011;42503;39.928;-75.152;2023-04-25T15:26:48;1.73;;;0.70;;
56631;SDS011;42503;39.928;-75.152;2023-04-25T15:36:49;1.23;;;0.82;;
56631;SDS011;42503;39.928;-75.152;2023-04-25T15:46:51;0.90;;;0.77;;
56631;SDS011;42503;39.928;-75.152;2023-04-25T15:56:52;2.08;;;0.80;;
56631;SDS011;42503;39.928;-75.152;2023-04-25T16:06:54;1.08;;;0.63;;
56631;SDS011;42503;39.928;-75.152;2023-04-25T16:16:55;2.20;;;0.70;;
56631;SDS011;42503;39.928;-75.152;2023-04-25T16:26:56;0.95;;;0.55;;
56631;SDS011;42503;39.928;-75.152;2023-04-25T16:36:58;0.82;;;0.52;;
56631;SDS011;42503;39.928;-75.152;2023-04-25T16:47:02;0.98;;;0.60;;
56631;SDS011;42503;39.928;-75.152;2023-04-25T16:57:05;0.50;;;0.50;;
56631;SDS011;42503;39.928;-75.152;2023-04-25T17:07:10;0.55;;;0.55;;
56631;SDS011;42503;39.928;-75.152;2023-04-25T17:17:11;0.60;;;0.50;;
56631;SDS011;42503;39.928;-75.152;2023-04-25T17:27:13;1.02;;;0.60;;
56631;SDS011;42503;39.928;-75.152;2023-04-25T17:37:14;0.73;;;0.63;;
56631;SDS011;42503;39.928;-75.152;2023-04-25T17:47:17;0.60;;;0.50;;
56631;SDS011;42503;39.928;-75.152;2023-04-25T17:57:18;0.90;;;0.73;;
56631;SDS011;42503;39.928;-75.152;2023-04-25T18:07:22;0.60;;;0.60;;
56631;SDS011;42503;39.928;-75.152;2023-04-25T18:17:23;0.55;;;0.55;;
56631;SDS011;42503;39.928;-75.152;2023-04-25T18:27:25;0.50;;;0.50;;
56631;SDS011;42503;39.928;-75.152;2023-04-25T18:37:26;1.10;;;0.70;;
56631;SDS011;42503;39.928;-75.152;2023-04-25T18:47:28;0.57;;;0.50;;
56631;SDS011;42503;39.928;-75.152;2023-04-25T18:57:32;1.05;;;0.60;;
56631;SDS011;42503;39.928;-75.152;2023-04-25T19:07:36;0.73;;;0.70;;
56631;SDS011;42503;39.928;-75.152;2023-04-25T19:17:37;1.05;;;0.77;;
56631;SDS011;42503;39.928;-75.152;2023-04-25T19:27:39;5.07;;;1.60;;
56631;SDS011;42503;39.928;-75.152;2023-04-25T19:37:40;7.07;;;2.10;;
56631;SDS011;42503;39.928;-75.152;2023-04-25T19:47:45;5.90;;;2.75;;
56631;SDS011;42503;39.928;-75.152;2023-04-25T19:57:47;4.55;;;2.70;;
56631;SDS011;42503;39.928;-75.152;2023-04-25T20:07:49;2.95;;;2.67;;
56631;SDS011;42503;39.928;-75.152;2023-04-25T20:17:50;3.30;;;2.78;;
56631;SDS011;42503;39.928;-75.152;2023-04-25T20:27:51;3.08;;;2.78;;
56631;SDS011;42503;39.928;-75.152;2023-04-25T20:37:56;3.08;;;2.67;;
56631;SDS011;42503;39.928;-75.152;2023-04-25T20:47:58;5.20;;;2.45;;
56631;SDS011;42503;39.928;-75.152;2023-04-25T20:57:59;1.80;;;1.70;;
56631;SDS011;42503;39.928;-75.152;2023-04-25T21:08:00;3.70;;;2.03;;
56631;SDS011;42503;39.928;-75.152;2023-04-25T21:18:05;2.00;;;1.70;;
56631;SDS011;42503;39.928;-75.152;2023-04-25T21:28:10;2.22;;;1.80;;
56631;SDS011;42503;39.928;-75.152;2023-04-25T21:38:11;2.15;;;1.67;;
56631;SDS011;42503;39.928;-75.152;2023-04-25T21:48:14;2.03;;;1.83;;
56631;SDS011;42503;39.928;-75.152;2023-04-25T21:58:15;4.22;;;1.52;;
56631;SDS011;42503;39.928;-75.152;2023-04-25T22:08:17;3.85;;;1.40;;
56631;SDS011;42503;39.928;-75.152;2023-04-25T22:18:18;6.47;;;1.52;;
56631;SDS011;42503;39.928;-75.152;2023-04-25T22:28:19;1.92;;;1.65;;
56631;SDS011;42503;39.928;-75.152;2023-04-25T22:38:21;4.65;;;1.67;;
56631;SDS011;42503;39.928;-75.152;2023-04-25T22:48:22;4.03;;;1.35;;
56631;SDS011;42503;39.928;-75.152;2023-04-25T22:58:24;2.05;;;1.30;;
56631;SDS011;42503;39.928;-75.152;2023-04-25T23:08:28;2.50;;;2.17;;
56631;SDS011;42503;39.928;-75.152;2023-04-25T23:18:30;3.55;;;1.67;;
56631;SDS011;42503;39.928;-75.152;2023-04-25T23:28:32;1.98;;;1.40;;
56631;SDS011;42503;39.928;-75.152;2023-04-25T23:38:33;2.25;;;1.40;;
56631;SDS011;42503;39.928;-75.152;2023-04-25T23:48:38;3.50;;;1.70;;
56631;SDS011;42503;39.928;-75.152;2023-04-25T23:58:39;4.53;;;1.80;;
